createdAt,value
2022-11-24T00:03:30.951Z,99909.72
2022-11-24T00:07:34.183Z,99906.78
2022-11-24T00:11:37.926Z,99910.88
2022-11-24T00:15:41.014Z,99914.38
2022-11-24T00:19:45.402Z,99922.50
2022-11-24T00:23:49.099Z,99921.47
2022-11-24T00:27:53.683Z,99920.41
2022-11-24T00:31:57.845Z,99918.75
2022-11-24T00:36:02.369Z,99927.09
2022-11-24T00:40:06.212Z,99928.28
2022-11-24T00:44:09.597Z,99937.47
2022-11-24T00:48:13.020Z,99939.66
2022-11-24T00:52:17.317Z,99931.56
2022-11-24T00:56:20.764Z,99936.38
2022-11-24T01:00:24.240Z,99946.97
2022-11-24T01:04:27.199Z,99943.44
2022-11-24T01:08:31.675Z,99945.09
2022-11-24T01:12:35.967Z,99949.91
2022-11-24T01:16:38.845Z,99956.97
2022-11-24T01:20:41.840Z,99958.41
2022-11-24T01:24:46.513Z,99952.97
2022-11-24T01:28:53.869Z,99955.91
2022-11-24T01:32:56.991Z,99963.19
2022-11-24T01:37:00.295Z,99958.03
2022-11-24T01:41:07.705Z,99959.09
2022-11-24T01:45:33.726Z,99966.16
2022-11-24T01:49:42.906Z,99964.03
2022-11-24T01:53:50.178Z,99976.50
2022-11-24T01:57:59.226Z,99983.22
2022-11-24T02:02:03.656Z,99976.16
2022-11-24T02:06:11.086Z,99983.22
2022-11-24T02:10:16.242Z,99975.34
2022-11-24T02:14:23.170Z,99987.56
2022-11-24T02:18:26.470Z,99991.91
2022-11-24T02:22:36.007Z,99997.31
2022-11-24T02:26:44.290Z,99999.81
2022-11-24T02:30:48.212Z,100001.69
2022-11-24T02:34:51.386Z,100007.94
2022-11-24T02:38:54.367Z,100026.06
2022-11-24T02:43:04.125Z,100020.28
2022-11-24T02:47:10.105Z,100023.00
2022-11-24T02:51:13.161Z,100019.72
2022-11-24T02:55:16.330Z,100018.28
2022-11-24T02:59:20.936Z,100023.13
2022-11-24T03:03:25.689Z,100029.84
2022-11-24T03:07:28.599Z,100039.00
2022-11-24T03:11:31.555Z,100036.28
2022-11-24T03:15:36.491Z,100041.63
2022-11-24T03:19:39.666Z,100044.31
2022-11-24T03:23:42.687Z,100045.38
2022-11-24T03:27:45.821Z,100047.47
2022-11-24T03:31:50.138Z,100047.16
2022-11-24T03:35:53.188Z,100043.63
2022-11-24T03:39:56.271Z,100047.41
2022-11-24T03:43:59.183Z,100047.59
2022-11-24T03:48:04.231Z,100053.97
2022-11-24T03:52:08.397Z,100061.50
2022-11-24T03:56:11.581Z,100051.75
2022-11-24T04:00:16.258Z,100059.63
2022-11-24T04:04:20.760Z,100067.84
2022-11-24T04:08:23.932Z,100067.97
2022-11-24T04:12:45.743Z,100068.78
2022-11-24T04:16:48.710Z,100060.78
2022-11-24T04:20:53.372Z,100082.31
2022-11-24T04:24:56.362Z,100072.53
2022-11-24T04:28:59.068Z,100079.38
2022-11-24T04:33:02.073Z,100093.47
2022-11-24T04:37:06.429Z,100096.75
2022-11-24T04:41:10.590Z,100097.25
2022-11-24T04:45:13.494Z,100103.72
2022-11-24T04:49:16.198Z,100117.56
2022-11-24T04:53:20.665Z,100120.28
2022-11-24T04:57:25.061Z,100125.47
2022-11-24T05:01:28.236Z,100132.97
2022-11-24T05:05:31.004Z,100132.72
2022-11-24T05:09:59.518Z,100134.03
2022-11-24T05:14:02.928Z,100137.78
2022-11-24T05:18:06.894Z,100143.91
2022-11-24T05:22:09.995Z,100148.47
2022-11-24T05:26:14.630Z,100152.81
2022-11-24T05:30:17.626Z,100155.31
2022-11-24T05:34:20.725Z,100150.84
2022-11-24T05:38:23.732Z,100160.53
2022-11-24T05:42:47.209Z,100154.75
2022-11-24T05:46:51.070Z,100167.44
2022-11-24T05:50:55.824Z,100170.66
2022-11-24T05:54:59.125Z,100173.47
2022-11-24T05:59:09.496Z,100180.44
2022-11-24T06:03:13.043Z,100187.38
2022-11-24T06:07:16.958Z,100202.44
2022-11-24T06:11:20.651Z,100195.25
2022-11-24T06:15:25.095Z,100204.28
2022-11-24T06:19:28.823Z,100204.91
2022-11-24T06:23:31.819Z,100210.31
2022-11-24T06:27:34.774Z,100220.53
2022-11-24T06:31:39.570Z,100229.84
2022-11-24T06:35:42.614Z,100239.38
2022-11-24T06:39:45.900Z,100257.63
2022-11-24T06:43:48.905Z,100265.63
2022-11-24T06:47:58.873Z,100265.75
2022-11-24T06:52:01.979Z,100285.88
2022-11-24T06:56:12.151Z,100292.50
2022-11-24T07:00:17.729Z,100300.63
2022-11-24T07:04:22.765Z,100315.44
2022-11-24T07:08:27.185Z,100326.16
2022-11-24T07:12:34.415Z,100334.53
2022-11-24T07:16:37.433Z,100337.94
2022-11-24T07:20:41.860Z,100346.06
2022-11-24T07:24:44.683Z,100341.69
2022-11-24T07:28:48.249Z,100351.81
2022-11-24T07:32:50.959Z,100355.09
2022-11-24T07:36:55.486Z,100364.28
2022-11-24T07:41:01.144Z,100376.44
2022-11-24T07:45:04.913Z,100385.13
2022-11-24T07:49:07.875Z,100374.53
2022-11-24T07:53:12.249Z,100379.03
2022-11-24T07:57:15.104Z,100389.88
2022-11-24T08:01:19.592Z,100395.03
2022-11-24T08:05:24.213Z,100391.03
2022-11-24T08:09:28.528Z,100406.00
2022-11-24T08:13:31.371Z,100395.38
2022-11-24T08:17:34.487Z,100408.91
2022-11-24T08:21:38.592Z,100409.75
2022-11-24T08:25:43.782Z,100427.66
2022-11-24T08:29:46.777Z,100432.59
2022-11-24T08:33:49.866Z,100430.97
2022-11-24T08:37:52.769Z,100445.78
2022-11-24T08:41:57.122Z,100443.06
2022-11-24T08:46:03.145Z,100454.97
2022-11-24T08:50:06.911Z,100470.16
2022-11-24T08:54:13.425Z,100472.97
2022-11-24T08:58:17.607Z,100477.94
2022-11-24T09:02:20.411Z,100476.88
2022-11-24T09:06:25.471Z,100483.69
2022-11-24T09:10:28.198Z,100490.91
2022-11-24T09:14:32.867Z,100486.91
2022-11-24T09:18:36.303Z,100496.50
2022-11-24T09:22:41.584Z,100496.63
2022-11-24T09:26:47.708Z,100499.69
2022-11-24T09:30:52.571Z,100497.13
2022-11-24T09:34:56.025Z,100502.09
2022-11-24T09:38:58.954Z,100508.44
2022-11-24T09:43:08.035Z,100520.22
2022-11-24T09:47:19.882Z,100525.66
2022-11-24T09:51:26.853Z,100519.53
2022-11-24T09:55:35.982Z,100527.81
2022-11-24T09:59:41.867Z,100533.00
2022-11-24T10:03:48.271Z,100535.34
2022-11-24T10:08:03.979Z,100531.84
2022-11-24T10:12:16.053Z,100533.97
2022-11-24T10:16:29.655Z,100539.41
2022-11-24T10:20:50.523Z,100562.03
2022-11-24T10:25:12.867Z,100566.88
2022-11-24T10:29:23.833Z,100575.50
2022-11-24T10:33:30.918Z,100591.44
2022-11-24T10:37:41.680Z,100592.84
2022-11-24T10:41:57.551Z,100599.47
2022-11-24T10:46:09.785Z,100595.22
2022-11-24T10:50:21.376Z,100603.00
2022-11-24T10:54:26.190Z,100613.97
2022-11-24T10:58:37.077Z,100623.53
2022-11-24T11:02:41.226Z,100623.66
2022-11-24T11:06:44.883Z,100613.38
2022-11-24T11:10:50.919Z,100609.09
2022-11-24T11:14:53.782Z,100622.81
2022-11-24T11:18:56.524Z,100617.50
2022-11-24T11:23:02.292Z,100626.22
2022-11-24T11:27:17.938Z,100637.19
2022-11-24T11:31:22.797Z,100617.91
2022-11-24T11:35:27.524Z,100623.69
2022-11-24T11:39:32.949Z,100637.03
2022-11-24T11:43:41.309Z,100648.16
2022-11-24T11:47:48.185Z,100655.38
2022-11-24T11:52:14.197Z,100651.00
2022-11-24T11:56:25.320Z,100656.69
2022-11-24T12:00:33.086Z,100660.06
2022-11-24T12:04:45.296Z,100661.84
2022-11-24T12:09:19.122Z,100666.56
2022-11-24T12:13:59.712Z,100663.19
2022-11-24T12:18:48.530Z,100676.63
2022-11-24T12:22:47.908Z,100665.16
2022-11-24T12:26:56.498Z,100669.78
2022-11-24T12:31:06.755Z,100663.53
2022-11-24T12:35:23.275Z,100675.22
2022-11-24T12:39:34.781Z,100681.13
2022-11-24T12:43:39.916Z,100678.41
2022-11-24T12:48:07.973Z,100679.34
2022-11-24T12:52:19.281Z,100688.53
2022-11-24T12:56:29.293Z,100683.78
2022-11-24T13:00:37.956Z,100674.00
2022-11-24T13:04:48.439Z,100662.03
2022-11-24T13:08:52.798Z,100658.63
2022-11-24T13:12:56.849Z,100662.97
2022-11-24T13:22:04.361Z,100658.94
2022-11-24T13:26:28.578Z,100676.31
2022-11-24T13:31:11.160Z,100677.88
2022-11-24T13:35:16.087Z,100687.13
2022-11-24T13:39:21.972Z,100684.03
2022-11-24T13:43:26.436Z,100695.03
2022-11-24T13:47:37.981Z,100687.72
2022-11-24T13:51:40.989Z,100691.63
2022-11-24T13:55:56.841Z,100699.28
2022-11-24T14:00:04.037Z,100700.09
2022-11-24T14:04:31.056Z,100704.13
2022-11-24T14:08:37.894Z,100697.63
2022-11-24T14:12:40.717Z,100697.38
2022-11-24T14:16:45.735Z,100700.84
2022-11-24T14:20:49.385Z,100702.50
2022-11-24T14:24:57.341Z,100705.19
2022-11-24T14:29:06.656Z,100698.94
2022-11-24T14:33:13.425Z,100700.22
2022-11-24T14:37:16.337Z,100706.63
2022-11-24T14:41:26.053Z,100709.94
2022-11-24T14:45:29.140Z,100721.28
2022-11-24T14:49:35.023Z,100713.88
2022-11-24T14:53:41.794Z,100722.97
2022-11-24T14:57:45.730Z,100724.13
2022-11-24T15:01:48.670Z,100734.38
2022-11-24T15:05:56.034Z,100731.44
2022-11-24T15:10:01.283Z,100727.28
2022-11-24T15:14:05.171Z,100727.41
2022-11-24T15:18:26.541Z,100730.72
2022-11-24T15:22:41.230Z,100720.78
2022-11-24T15:26:45.129Z,100718.78
2022-11-24T15:30:47.921Z,100728.56
2022-11-24T15:34:50.667Z,100737.88
2022-11-24T15:38:54.832Z,100734.06
2022-11-24T15:43:02.072Z,100735.69
2022-11-24T15:47:09.981Z,100738.84
2022-11-24T15:51:15.387Z,100749.41
2022-11-24T15:55:22.131Z,100745.34
2022-11-24T15:59:24.863Z,100751.09
2022-11-24T16:07:54.900Z,100756.19
2022-11-24T16:11:59.069Z,100759.44
2022-11-24T16:16:01.862Z,100766.19
2022-11-24T16:20:04.966Z,100770.69
2022-11-24T16:24:08.401Z,100770.72
2022-11-24T16:28:15.071Z,100772.66
2022-11-24T16:32:17.846Z,100765.31
2022-11-24T16:36:20.792Z,100764.53
2022-11-24T16:40:23.538Z,100765.66
2022-11-24T16:44:27.838Z,100764.44
2022-11-24T16:48:30.533Z,100771.78
2022-11-24T16:52:33.247Z,100762.66
2022-11-24T16:56:35.991Z,100765.19
2022-11-24T17:00:40.031Z,100770.22
2022-11-24T17:04:42.761Z,100778.78
2022-11-24T17:08:46.907Z,100783.59
2022-11-24T17:12:49.636Z,100780.69
2022-11-24T17:16:56.015Z,100771.16
2022-11-24T17:21:03.163Z,100769.09
2022-11-24T17:25:09.983Z,100760.81
2022-11-24T17:29:12.721Z,100766.06
2022-11-24T17:33:17.394Z,100764.47
2022-11-24T17:37:20.163Z,100759.91
2022-11-24T17:41:23.692Z,100761.38
2022-11-24T17:45:26.699Z,100754.59
2022-11-24T17:49:30.902Z,100754.19
2022-11-24T17:53:33.621Z,100757.75
2022-11-24T17:57:36.363Z,100760.88
2022-11-24T18:01:39.163Z,100768.81
2022-11-24T18:05:43.241Z,100764.91
2022-11-24T18:09:45.988Z,100763.22
2022-11-24T18:13:58.294Z,100764.72
2022-11-24T18:18:03.094Z,100777.81
2022-11-24T18:22:07.163Z,100776.19
2022-11-24T18:26:14.766Z,100779.50
2022-11-24T18:30:18.019Z,100783.94
2022-11-24T18:34:24.628Z,100787.25
2022-11-24T18:38:29.549Z,100783.31
2022-11-24T18:42:32.301Z,100791.84
2022-11-24T18:46:35.038Z,100799.53
2022-11-24T18:50:39.391Z,100794.13
2022-11-24T18:54:43.480Z,100797.47
2022-11-24T18:58:46.442Z,100792.47
2022-11-24T19:02:51.192Z,100792.88
2022-11-24T19:06:54.491Z,100807.19
2022-11-24T19:10:58.601Z,100809.22
2022-11-24T19:15:01.323Z,100810.69
2022-11-24T19:19:04.895Z,100809.44
2022-11-24T19:23:07.589Z,100805.50
2022-11-24T19:27:11.659Z,100810.88
2022-11-24T19:31:16.635Z,100802.31
2022-11-24T19:35:19.528Z,100796.91
2022-11-24T19:39:22.699Z,100803.16
2022-11-24T19:43:26.743Z,100797.75
2022-11-24T19:47:29.676Z,100794.84
2022-11-24T19:51:34.550Z,100792.38
2022-11-24T19:55:37.260Z,100790.94
2022-11-24T19:59:41.690Z,100796.72
2022-11-24T20:03:46.579Z,100794.84
2022-11-24T20:07:49.412Z,100790.50
2022-11-24T20:11:52.199Z,100792.59
2022-11-24T20:15:56.268Z,100799.88
2022-11-24T20:19:58.973Z,100799.03
2022-11-24T20:24:04.053Z,100795.50
2022-11-24T20:28:06.774Z,100790.94
2022-11-24T20:32:11.406Z,100785.53
2022-11-24T20:36:15.881Z,100789.66
2022-11-24T20:40:19.149Z,100789.88
2022-11-24T20:44:22.761Z,100793.41
2022-11-24T20:48:26.950Z,100787.78
2022-11-24T20:52:29.740Z,100787.38
2022-11-24T20:56:33.881Z,100793.81
2022-11-24T21:00:36.684Z,100797.38
2022-11-24T21:04:40.927Z,100797.75
2022-11-24T21:08:43.734Z,100783.41
2022-11-24T21:12:46.577Z,100787.97
2022-11-24T21:16:49.308Z,100796.31
2022-11-24T21:20:53.430Z,100795.91
2022-11-24T21:24:56.216Z,100789.06
2022-11-24T21:28:59.042Z,100776.59
2022-11-24T21:33:02.894Z,100782.63
2022-11-24T21:37:07.045Z,100789.91
2022-11-24T21:41:11.731Z,100790.75
2022-11-24T21:45:14.562Z,100795.91
2022-11-24T21:49:17.227Z,100790.75
2022-11-24T21:53:21.273Z,100784.72
2022-11-24T21:57:24.008Z,100777.66
2022-11-24T22:01:29.092Z,100778.06
2022-11-24T22:05:31.891Z,100776.84
2022-11-24T22:09:35.997Z,100787.25
2022-11-24T22:13:38.748Z,100768.97
2022-11-24T22:17:41.461Z,100774.22
2022-11-24T22:21:44.242Z,100772.53
2022-11-24T22:25:48.306Z,100773.19
2022-11-24T22:29:54.090Z,100762.56
2022-11-24T22:33:58.340Z,100764.84
2022-11-24T22:38:01.014Z,100770.25
2022-11-24T22:42:05.360Z,100759.44
2022-11-24T22:46:10.946Z,100765.91
2022-11-24T22:50:15.015Z,100758.03
2022-11-24T22:54:17.751Z,100755.09
2022-11-24T22:58:21.934Z,100753.63
2022-11-24T23:02:24.718Z,100748.88
2022-11-24T23:06:29.418Z,100747.59
2022-11-24T23:10:32.113Z,100738.44
2022-11-24T23:14:36.707Z,100741.34
2022-11-24T23:18:40.209Z,100737.34
2022-11-24T23:22:42.935Z,100738.78
2022-11-24T23:26:45.696Z,100731.66
2022-11-24T23:30:49.815Z,100717.97
2022-11-24T23:34:52.535Z,100722.50
2022-11-24T23:38:55.566Z,100719.59
2022-11-24T23:42:58.239Z,100711.47
2022-11-24T23:47:02.277Z,100708.78
2022-11-24T23:51:06.669Z,100694.44
2022-11-24T23:55:09.863Z,100707.72
2022-11-24T23:59:13.092Z,100694.44
